Los Juries, Argentina
Current Conditions -  °F | °C
As of 3:00 AM on Monday 22 Dec 2014 (Local Time) from SARE Reporting Station
Clear Clear  
Wind Chill: 68°   Ceiling: Unl
Heat Index: 68°   Visibility: 6mi
Dew Point: 59°   Wind: 3mph
Humidity: 73%   Direction: 180°S
Pressure: 29.91"   Gusts: NA
Location:  28.47°S, 62.1°W
Report Text: SARE 220600Z 18003KT CAVOK 20/15 Q1013
Loading
Personal Weather Stations






























Interactive Weather Map New forecast layout! Learn more

10-Day Weather Forecast

Advertisements
Track Severe Weather on mobile